NORTHEAST SUFFOLK  -  Rip Current Statement Rip Current Statement        NORTHERN NASSAU  -  Rip Current Statement Rip Current Statement        NORTHERN QUEENS  -  Rip Current Statement Rip Current Statement        NORTHWEST SUFFOLK  -  Rip Current Statement Rip Current Statement        SOUTHEAST SUFFOLK  -  Rip Current Statement Rip Current Statement        SOUTHERN NASSAU  -  Rip Current Statement Rip Current Statement        SOUTHERN QUEENS  -  Rip Current Statement Rip Current Statement        SOUTHWEST SUFFOLK  -  Rip Current Statement Rip Current Statement      

Active alerts

Northern Queens
  Details for Northern Queens Rip Current Statement
Southern Queens
  Details for Southern Queens Rip Current Statement
Northern Nassau
  Details for Northern Nassau Rip Current Statement
Southern Nassau
  Details for Southern Nassau Rip Current Statement
Northwest Suffolk
  Details for Northwest Suffolk Rip Current Statement
Southwest Suffolk
  Details for Southwest Suffolk Rip Current Statement
Northeast Suffolk
  Details for Northeast Suffolk Rip Current Statement
Southeast Suffolk
  Details for Southeast Suffolk Rip Current Statement


WXM80 ListenWXM80 Stop

You find our weather info also at:

UK Metoffice

WeatherCloud

Weather Underground

Northeastern Weather Network

AWEKAS

Citizen Weather Observer Program (CWOP)

HAMweather, WeatherForYou, PWS Weather


Weather Underground History page Text

Daily Summary for August 7, 2017 Units:  Metric    English   Both
« Previous Day
Next Day »
Daily Weekly Monthly Yearly Custom
  High: Low: Average:
Temperature: 22.1 °C 17.7 °C 19.3 °C
Dew Point: 19.7 °C 13.9 °C 17.3 °C
Humidity: 97 % 76 % 88 %
Wind Speed: 6.3 km/h 0 km/h 0.3 km/h
Wind Gust: 13 km/h - -
Wind:- - South
Pressure: 1018.2 hPa 1010.7 hPa -
Precipitation: 0.25 mm    
Historical Graphs
 
 
Tabular Data for August 7, 2017
Time Temperature Dew Point Pressure Wind Wind Speed Wind Gust Humidity Rainfall Rate (Hourly)
00:03 18.3 °C 14 °C 1017.8 hPa Calm   1.9 km/h 76 % 0 mm
00:08 18.3 °C 14 °C 1017.8 hPa SSW 0.2 km/h 1.9 km/h 76 % 0 mm
00:13 18.3 °C 14 °C 1017.8 hPa SSW 0.2 km/h 4.8 km/h 76 % 0 mm
00:18 18.3 °C 14 °C 1017.8 hPa SSW 0.2 km/h 1.9 km/h 76 % 0 mm
00:23 18.3 °C 14.2 °C 1017.8 hPa Calm     77 % 0 mm
00:28 18.3 °C 14.4 °C 1017.8 hPa Calm     78 % 0 mm
00:29 18.3 °C 14.4 °C 1017.8 hPa Calm     78 % 0 mm
00:33 18.3 °C 14.4 °C 1018.2 hPa Calm     78 % 0 mm
00:39 18.2 °C 14.3 °C 1018.2 hPa Calm     78 % 0 mm
00:44 18.2 °C 14.3 °C 1018.2 hPa Calm     78 % 0 mm
00:49 18.2 °C 14.3 °C 1018.2 hPa Calm     78 % 0 mm
00:54 18.1 °C 14.2 °C 1018.2 hPa Calm     78 % 0 mm
00:59 18.1 °C 14.2 °C 1018.2 hPa Calm     78 % 0 mm
01:04 18 °C 14.1 °C 1017.8 hPa Calm     78 % 0 mm
01:09 17.9 °C 14 °C 1017.8 hPa Calm     78 % 0 mm
01:14 17.8 °C 13.9 °C 1017.8 hPa Calm     78 % 0 mm
01:19 17.8 °C 13.9 °C 1017.8 hPa SW 1.6 km/h 5.6 km/h 78 % 0 mm
01:24 17.8 °C 13.9 °C 1017.8 hPa SW 0.3 km/h 1.9 km/h 78 % 0 mm
01:29 17.7 °C 14.1 °C 1017.8 hPa Calm   3.7 km/h 79 % 0 mm
01:39 17.7 °C 14.1 °C 1017.8 hPa WSW 1.6 km/h 5.6 km/h 79 % 0 mm
01:44 17.7 °C 14.1 °C 1017.8 hPa WSW 0.6 km/h 3.7 km/h 79 % 0 mm
01:49 17.7 °C 14.1 °C 1017.8 hPa WSW 1.1 km/h 3.7 km/h 79 % 0 mm
02:04 17.8 °C 14.1 °C 1017.8 hPa Calm   1.9 km/h 79 % 0 mm
02:09 17.8 °C 14.2 °C 1017.8 hPa West 0.5 km/h 5.6 km/h 79 % 0 mm
02:14 17.8 °C 14.2 °C 1017.8 hPa West 1.3 km/h 5.6 km/h 79 % 0 mm
02:20 17.9 °C 14.2 °C 1017.8 hPa Calm   3.7 km/h 79 % 0 mm
02:25 17.9 °C 14.1 °C 1017.8 hPa West 0.8 km/h 3.7 km/h 78 % 0 mm
02:30 17.9 °C 14.2 °C 1017.8 hPa West 0.2 km/h 1.9 km/h 79 % 0 mm
02:35 18 °C 14.1 °C 1017.8 hPa Calm     78 % 0 mm
02:40 18 °C 14.1 °C 1017.8 hPa Calm     78 % 0 mm
02:45 18 °C 14.1 °C 1017.8 hPa Calm     78 % 0 mm
02:50 18 °C 14.1 °C 1017.8 hPa West 1.1 km/h 3.7 km/h 78 % 0 mm
02:55 18 °C 14.1 °C 1017.5 hPa West 0.6 km/h 3.7 km/h 78 % 0 mm
03:00 18 °C 14.3 °C 1017.5 hPa West 0.8 km/h 3.2 km/h 79 % 0 mm
03:05 18.1 °C 14.3 °C 1017.5 hPa West 0.8 km/h 1.9 km/h 79 % 0 mm
03:10 18.1 °C 14.3 °C 1017.5 hPa West 2.6 km/h 5.6 km/h 79 % 0 mm
03:15 18.1 °C 14.2 °C 1017.5 hPa West 1 km/h 3.7 km/h 78 % 0 mm
03:20 18.2 °C 14.3 °C 1017.5 hPa West 1.6 km/h 3.7 km/h 78 % 0 mm
03:25 18.2 °C 14.4 °C 1017.5 hPa West 0.3 km/h 1.9 km/h 79 % 0 mm
03:30 18.2 °C 14.5 °C 1017.5 hPa West 0.2 km/h   79 % 0 mm
03:35 18.3 °C 14.6 °C 1017.5 hPa Calm     79 % 0 mm
03:41 18.3 °C 14.6 °C 1017.5 hPa Calm   1.6 km/h 79 % 0 mm
03:46 18.3 °C 14.6 °C 1017.5 hPa Calm   1.6 km/h 79 % 0 mm
03:51 18.3 °C 14.6 °C 1017.2 hPa Calm     79 % 0 mm
03:56 18.4 °C 14.7 °C 1017.2 hPa Calm     79 % 0 mm
04:01 18.3 °C 14.6 °C 1017.2 hPa Calm     79 % 0 mm
04:06 18.4 °C 14.9 °C 1017.2 hPa Calm     80 % 0 mm
04:11 18.4 °C 15.1 °C 1017.5 hPa Calm     81 % 0 mm
04:16 18.4 °C 14.9 °C 1017.2 hPa Calm     80 % 0 mm
04:21 18.4 °C 14.9 °C 1017.2 hPa Calm     80 % 0 mm
04:26 18.4 °C 14.9 °C 1017.2 hPa Calm     80 % 0 mm
04:31 18.4 °C 15.1 °C 1017.2 hPa Calm     81 % 0 mm
04:33 18.4 °C 15.1 °C 1017.2 hPa Calm     81 % 0 mm
04:38 18.4 °C 15.3 °C 1017.2 hPa Calm     82 % 0 mm
04:43 18.4 °C 15.1 °C 1017.2 hPa Calm     81 % 0 mm
04:45 18.4 °C 15.1 °C 1017.5 hPa Calm     81 % 0 mm
04:50 18.4 °C 15.1 °C 1017.2 hPa Calm     81 % 0 mm
04:55 18.4 °C 15.1 °C 1017.2 hPa Calm     81 % 0 mm
05:00 18.3 °C 15 °C 1017.2 hPa Calm     81 % 0 mm
05:05 18.3 °C 15 °C 1017.2 hPa West 1.9 km/h 5.6 km/h 81 % 0 mm
05:10 18.3 °C 14.9 °C 1017.5 hPa West 0.8 km/h 3.7 km/h 81 % 0 mm
05:15 18.3 °C 14.9 °C 1017.2 hPa Calm     81 % 0 mm
05:20 18.3 °C 14.9 °C 1017.5 hPa Calm     81 % 0 mm
05:25 18.3 °C 14.9 °C 1017.5 hPa Calm     81 % 0 mm
05:30 18.3 °C 14.9 °C 1017.5 hPa Calm     81 % 0 mm
05:35 18.3 °C 15 °C 1017.5 hPa Calm     81 % 0 mm
05:40 18.3 °C 15 °C 1017.5 hPa Calm     81 % 0 mm
05:45 18.4 °C 15.1 °C 1017.5 hPa Calm     81 % 0 mm
05:50 18.4 °C 15.3 °C 1017.5 hPa Calm     82 % 0 mm
05:55 18.4 °C 15.3 °C 1017.5 hPa Calm     82 % 0 mm
06:00 18.4 °C 15.3 °C 1017.5 hPa Calm     82 % 0 mm
06:05 18.4 °C 15.3 °C 1017.5 hPa Calm     82 % 0 mm
06:10 18.4 °C 15.5 °C 1017.5 hPa Calm     83 % 0 mm
06:15 18.4 °C 15.5 °C 1017.5 hPa Calm     83 % 0 mm
06:20 18.5 °C 15.6 °C 1017.5 hPa Calm     83 % 0 mm
06:25 18.5 °C 15.6 °C 1017.5 hPa Calm     83 % 0 mm
06:31 18.5 °C 15.6 °C 1017.5 hPa Calm     83 % 0 mm
06:36 18.6 °C 15.8 °C 1017.5 hPa Calm   1.6 km/h 84 % 0 mm
06:41 18.6 °C 15.8 °C 1017.5 hPa Calm     84 % 0 mm
06:46 18.6 °C 15.8 °C 1017.5 hPa Calm     84 % 0 mm
06:51 18.6 °C 15.9 °C 1017.5 hPa Calm     84 % 0 mm
06:56 18.7 °C 15.9 °C 1017.5 hPa Calm     84 % 0 mm
07:01 18.7 °C 16.2 °C 1017.2 hPa Calm   1.9 km/h 85 % 0 mm
07:06 18.8 °C 16.2 °C 1017.5 hPa Calm     85 % 0 mm
07:11 18.8 °C 16.2 °C 1017.5 hPa Calm     85 % 0 mm
07:16 18.8 °C 16.4 °C 1017.5 hPa Calm     86 % 0 mm
07:21 18.9 °C 16.5 °C 1017.8 hPa Calm     86 % 0 mm
07:26 18.9 °C 16.4 °C 1017.5 hPa West 0.5 km/h 3.7 km/h 85 % 0 mm
07:31 19 °C 16.4 °C 1017.8 hPa Calm   1.9 km/h 85 % 0 mm
07:36 19.1 °C 16.7 °C 1017.5 hPa Calm     86 % 0 mm
07:41 19.1 °C 16.7 °C 1017.8 hPa Calm     86 % 0 mm
07:46 19.2 °C 16.8 °C 1017.5 hPa Calm     86 % 0 mm
07:52 19.3 °C 16.9 °C 1017.5 hPa Calm     86 % 0 mm
07:57 19.3 °C 16.9 °C 1017.5 hPa Calm   1.9 km/h 86 % 0 mm
08:02 19.4 °C 16.8 °C 1017.5 hPa Calm     85 % 0 mm
08:07 19.5 °C 17.1 °C 1017.5 hPa Calm     86 % 0 mm
08:12 19.6 °C 17.2 °C 1017.5 hPa Calm     86 % 0 mm
08:14 19.7 °C 17.3 °C 1017.5 hPa Calm     86 % 0 mm
08:19 19.7 °C 17.3 °C 1017.5 hPa Calm     86 % 0 mm
08:24 19.8 °C 17.4 °C 1017.5 hPa Calm     86 % 0 mm
08:29 19.8 °C 17.2 °C 1017.5 hPa Calm     85 % 0 mm
08:34 19.9 °C 17.3 °C 1017.5 hPa Calm     85 % 0 mm
08:39 19.9 °C 17.3 °C 1017.2 hPa Calm     85 % 0 mm
08:44 20 °C 17.4 °C 1017.2 hPa Calm     85 % 0 mm
08:49 20.1 °C 17.4 °C 1017.2 hPa Calm     85 % 0 mm
08:54 20.1 °C 17.5 °C 1017.2 hPa Calm     85 % 0 mm
08:59 20.2 °C 17.6 °C 1017.2 hPa Calm   1.9 km/h 85 % 0 mm
09:04 20.2 °C 17.6 °C 1017.2 hPa Calm     85 % 0 mm
09:10 20.3 °C 17.7 °C 1017.5 hPa Calm     85 % 0 mm
09:15 20.3 °C 17.7 °C 1017.5 hPa Calm     85 % 0 mm
09:20 20.3 °C 17.7 °C 1017.5 hPa Calm     85 % 0 mm
09:25 20.4 °C 17.8 °C 1017.2 hPa Calm   1.9 km/h 85 % 0 mm
09:30 20.4 °C 18 °C 1017.2 hPa Calm     86 % 0 mm
09:35 20.4 °C 18 °C 1017.2 hPa Calm     86 % 0 mm
09:40 20.5 °C 18.1 °C 1017.2 hPa Calm     86 % 0 mm
09:45 20.5 °C 18.1 °C 1017.2 hPa Calm     86 % 0 mm
09:50 20.5 °C 18.1 °C 1017.2 hPa Calm     86 % 0 mm
09:55 20.6 °C 18.1 °C 1017.2 hPa Calm     86 % 0 mm
10:00 20.6 °C 18.1 °C 1017.2 hPa Calm     86 % 0 mm
10:01 20.6 °C 18.1 °C 1017.2 hPa Calm     86 % 0 mm
10:06 20.6 °C 18.1 °C 1017.2 hPa Calm     86 % 0 mm
10:11 20.7 °C 18.4 °C 1017.2 hPa Calm     87 % 0 mm
10:16 20.7 °C 18.5 °C 1016.8 hPa Calm     87 % 0 mm
10:21 20.8 °C 18.7 °C 1016.8 hPa Calm     88 % 0 mm
10:26 20.8 °C 18.8 °C 1016.8 hPa Calm     88 % 0 mm
10:31 20.9 °C 18.7 °C 1017.2 hPa Calm     87 % 0 mm
10:37 21 °C 18.8 °C 1016.8 hPa Calm     87 % 0 mm
10:42 21.1 °C 18.8 °C 1017.2 hPa Calm     87 % 0 mm
10:47 21.2 °C 18.9 °C 1016.8 hPa Calm     87 % 0 mm
10:52 21.2 °C 18.9 °C 1016.8 hPa Calm     87 % 0 mm
10:57 21.3 °C 19.1 °C 1016.8 hPa Calm     87 % 0 mm
11:02 21.4 °C 19.2 °C 1016.8 hPa Calm     87 % 0 mm
11:07 21.6 °C 19.1 °C 1016.8 hPa Calm     86 % 0 mm
11:12 21.7 °C 19.1 °C 1017.2 hPa Calm     85 % 0 mm
11:17 21.8 °C 19.2 °C 1016.8 hPa Calm     85 % 0 mm
11:22 21.8 °C 19 °C 1017.2 hPa Calm     84 % 0 mm
11:27 21.9 °C 19.1 °C 1017.2 hPa SW 0.8 km/h 3.7 km/h 84 % 0 mm
11:32 21.9 °C 19.1 °C 1017.5 hPa SW 0.2 km/h 3.7 km/h 84 % 0 mm
11:37 22 °C 19.2 °C 1017.5 hPa SW 1.9 km/h 5.6 km/h 84 % 0 mm
11:42 22.1 °C 19.2 °C 1017.5 hPa SSW 6.1 km/h 13 km/h 84 % 0 mm
11:47 22.1 °C 19.2 °C 1017.5 hPa WSW 2.6 km/h 5.6 km/h 84 % 0 mm
11:52 22 °C 19.3 °C 1017.5 hPa West 2.1 km/h 3.7 km/h 85 % 0 mm
11:57 21.9 °C 19.5 °C 1017.2 hPa WNW 1.9 km/h 5.6 km/h 86 % 0 mm
12:02 21.9 °C 19.6 °C 1017.2 hPa WNW 0.2 km/h 1.9 km/h 87 % 0 mm
12:07 21.8 °C 19.7 °C 1017.2 hPa Calm   1.9 km/h 88 % 0 mm
12:12 21.7 °C 19.7 °C 1017.2 hPa WNW 1.3 km/h 5.6 km/h 88 % 0 mm
12:17 21.7 °C 19.6 °C 1017.2 hPa WNW 1.1 km/h 3.7 km/h 88 % 0 mm
12:22 21.6 °C 19.7 °C 1017.2 hPa NW 1 km/h 3.7 km/h 89 % 0 mm
12:27 21.5 °C 19.6 °C 1017.2 hPa NNW 0.2 km/h 3.7 km/h 89 % 0 mm
12:32 21.4 °C 19.6 °C 1017.2 hPa NNW 0.2 km/h 1.9 km/h 89 % 0 mm
12:37 21.4 °C 19.5 °C 1017.2 hPa Calm   3.7 km/h 89 % 0 mm
12:42 21.3 °C 19.4 °C 1017.2 hPa Calm     89 % 0 mm
12:47 21.2 °C 19.3 °C 1017.2 hPa North 6.3 km/h 7.4 km/h 89 % 0 mm
12:52 21 °C 19.1 °C 1017.2 hPa North 3.9 km/h 9.3 km/h 89 % 0.25 mm
12:57 20.8 °C 19.1 °C 1016.8 hPa NNE 3.9 km/h 5.6 km/h 90 % 0.25 mm
13:02 20.7 °C 18.9 °C 1016.8 hPa NNE 2.7 km/h 5.6 km/h 90 % 0.25 mm
13:07 20.6 °C 18.8 °C 1016.8 hPa North 0.2 km/h 1.9 km/h 90 % 0.25 mm
13:12 20.5 °C 18.8 °C 1016.8 hPa North 0.6 km/h 1.9 km/h 90 % 0.25 mm
13:17 20.4 °C 18.9 °C 1016.8 hPa SSE 1 km/h 5.6 km/h 91 % 0.25 mm
13:22 20.4 °C 18.9 °C 1016.8 hPa Calm     91 % 0.25 mm
13:27 20.3 °C 18.8 °C 1016.8 hPa SE 0.6 km/h 5.6 km/h 91 % 0.25 mm
13:33 20.3 °C 18.8 °C 1016.8 hPa Calm     91 % 0.25 mm
13:38 20.3 °C 18.9 °C 1016.8 hPa Calm     92 % 0.25 mm
13:43 20.3 °C 19.1 °C 1016.8 hPa Calm     93 % 0.25 mm
13:48 20.2 °C 19.1 °C 1016.5 hPa Calm   3.7 km/h 93 % 0.25 mm
13:53 20.2 °C 18.8 °C 1016.5 hPa Calm     92 % 0 mm
13:58 20.2 °C 19 °C 1016.5 hPa ENE 0.6 km/h 3.7 km/h 93 % 0 mm
14:03 20.2 °C 19 °C 1016.5 hPa NE 1.1 km/h 1.9 km/h 93 % 0 mm
14:08 20.1 °C 18.9 °C 1016.5 hPa Calm     93 % 0 mm
14:13 20.1 °C 18.9 °C 1016.5 hPa Calm     93 % 0 mm
14:18 20.1 °C 18.9 °C 1016.1 hPa Calm     93 % 0 mm
14:23 20 °C 18.8 °C 1016.1 hPa NE 0.3 km/h 1.6 km/h 93 % 0 mm
14:28 20 °C 18.8 °C 1016.1 hPa NE 1.9 km/h 5.6 km/h 93 % 0 mm
14:33 19.9 °C 18.8 °C 1015.8 hPa Calm   5.6 km/h 93 % 0 mm
14:38 19.9 °C 18.8 °C 1015.8 hPa ENE 0.3 km/h 1.9 km/h 93 % 0 mm
14:43 19.9 °C 18.9 °C 1015.8 hPa Calm     94 % 0 mm
14:48 19.9 °C 18.9 °C 1015.8 hPa Calm     94 % 0 mm
14:53 19.9 °C 18.9 °C 1015.8 hPa Calm     94 % 0 mm
14:59 19.9 °C 18.9 °C 1015.8 hPa Calm     94 % 0 mm
15:04 19.9 °C 18.9 °C 1015.8 hPa Calm     94 % 0 mm
15:09 19.9 °C 18.9 °C 1015.8 hPa Calm     94 % 0 mm
15:14 19.9 °C 18.9 °C 1015.8 hPa Calm     94 % 0 mm
15:19 20 °C 19.2 °C 1015.5 hPa Calm     95 % 0 mm
15:24 20.1 °C 19.2 °C 1015.5 hPa Calm   1.6 km/h 95 % 0 mm
15:29 20 °C 19.2 °C 1015.5 hPa Calm     95 % 0 mm
15:34 19.9 °C 19.1 °C 1015.8 hPa ENE 0.2 km/h 1.9 km/h 95 % 0 mm
15:39 19.9 °C 19.1 °C 1015.8 hPa Calm     95 % 0 mm
15:44 19.9 °C 19.1 °C 1015.5 hPa Calm     95 % 0 mm
15:49 19.9 °C 19.1 °C 1015.5 hPa Calm     95 % 0 mm
15:54 19.9 °C 19.1 °C 1015.5 hPa Calm     95 % 0 mm
15:59 19.9 °C 19.1 °C 1015.5 hPa ENE 0.3 km/h 1.9 km/h 95 % 0 mm
16:04 19.9 °C 19.1 °C 1015.5 hPa Calm     95 % 0 mm
16:09 19.9 °C 19.1 °C 1015.1 hPa Calm     95 % 0 mm
16:14 19.9 °C 19.1 °C 1015.1 hPa Calm     95 % 0 mm
16:19 19.9 °C 19.1 °C 1015.1 hPa Calm   1.9 km/h 95 % 0 mm
16:24 19.9 °C 19.1 °C 1015.1 hPa Calm     95 % 0 mm
16:29 19.9 °C 19.1 °C 1015.1 hPa SE 0.6 km/h 6.4 km/h 95 % 0 mm
16:34 19.8 °C 19 °C 1014.8 hPa Calm     95 % 0 mm
16:39 19.8 °C 18.9 °C 1014.8 hPa SE 1 km/h 4.8 km/h 95 % 0 mm
16:44 19.8 °C 18.9 °C 1014.8 hPa SE 1 km/h 3.7 km/h 95 % 0 mm
16:49 19.7 °C 18.9 °C 1014.4 hPa SE 0.2 km/h 1.9 km/h 95 % 0 mm
16:54 19.7 °C 18.8 °C 1014.4 hPa SE 0.6 km/h 5.6 km/h 95 % 0 mm
16:59 19.6 °C 18.8 °C 1014.1 hPa Calm   1.9 km/h 95 % 0 mm
17:04 19.6 °C 18.6 °C 1014.1 hPa Calm   3.7 km/h 94 % 0 mm
17:09 19.6 °C 18.7 °C 1013.8 hPa Calm     95 % 0 mm
17:14 19.5 °C 18.7 °C 1013.8 hPa Calm     95 % 0 mm
17:19 19.5 °C 18.7 °C 1013.8 hPa Calm     95 % 0 mm
17:24 19.4 °C 18.6 °C 1013.8 hPa Calm     95 % 0 mm
17:29 19.4 °C 18.6 °C 1013.4 hPa Calm     95 % 0 mm
17:34 19.4 °C 18.6 °C 1013.4 hPa Calm   1.9 km/h 95 % 0 mm
17:39 19.4 °C 18.6 °C 1013.4 hPa Calm     95 % 0 mm
17:44 19.4 °C 18.6 °C 1013.4 hPa Calm     95 % 0 mm
17:49 19.5 °C 18.7 °C 1013.4 hPa Calm     95 % 0 mm
17:54 19.4 °C 18.6 °C 1013.1 hPa Calm     95 % 0 mm
17:59 19.4 °C 18.6 °C 1013.1 hPa SE 0.5 km/h 3.7 km/h 95 % 0 mm
18:04 19.3 °C 18.5 °C 1013.1 hPa SE 0.5 km/h 1.9 km/h 95 % 0 mm
18:10 19.3 °C 18.5 °C 1012.8 hPa SE 0.2 km/h 1.9 km/h 95 % 0 mm
18:15 19.3 °C 18.4 °C 1012.8 hPa Calm   1.9 km/h 95 % 0 mm
18:20 19.3 °C 18.4 °C 1012.8 hPa Calm     95 % 0 mm
18:25 19.3 °C 18.4 °C 1012.8 hPa Calm     95 % 0 mm
18:30 19.3 °C 18.4 °C 1012.8 hPa SE 0.6 km/h 3.7 km/h 95 % 0 mm
18:35 19.3 °C 18.4 °C 1013.1 hPa Calm     95 % 0 mm
18:40 19.2 °C 18.4 °C 1013.1 hPa Calm     95 % 0 mm
18:45 19.3 °C 18.4 °C 1013.4 hPa SE 0.3 km/h 1.9 km/h 95 % 0 mm
18:50 19.3 °C 18.4 °C 1013.1 hPa Calm   1.6 km/h 95 % 0 mm
18:55 19.2 °C 18.4 °C 1013.1 hPa SE 0.2 km/h 1.9 km/h 95 % 0 mm
19:00 19.3 °C 18.4 °C 1013.1 hPa SE 0.3 km/h 3.7 km/h 95 % 0 mm
19:05 19.3 °C 18.4 °C 1013.4 hPa Calm     95 % 0 mm
19:10 19.2 °C 18.4 °C 1013.4 hPa Calm     95 % 0 mm
19:15 19.2 °C 18.4 °C 1013.4 hPa Calm     95 % 0 mm
19:20 19.2 °C 18.4 °C 1013.4 hPa Calm     95 % 0 mm
19:25 19.2 °C 18.3 °C 1013.1 hPa Calm     95 % 0 mm
19:30 19.1 °C 18.3 °C 1013.1 hPa Calm     95 % 0 mm
19:33 19.1 °C 18.3 °C 1013.1 hPa Calm     95 % 0 mm
19:38 19.1 °C 18.2 °C 1012.8 hPa SE 0.2 km/h 1.9 km/h 95 % 0 mm
19:43 18.9 °C 18.1 °C 1012.8 hPa SE 2.7 km/h 5.6 km/h 95 % 0 mm
19:48 18.9 °C 18.1 °C 1012.8 hPa Calm     95 % 0 mm
19:53 18.8 °C 18 °C 1012.8 hPa Calm     95 % 0 mm
19:58 18.8 °C 18 °C 1012.4 hPa Calm     95 % 0 mm
20:03 18.8 °C 17.9 °C 1012.4 hPa Calm     95 % 0 mm
20:08 18.7 °C 17.9 °C 1012.4 hPa Calm     95 % 0 mm
20:14 18.7 °C 17.8 °C 1012.4 hPa Calm     95 % 0 mm
20:19 18.6 °C 17.8 °C 1012.4 hPa Calm     95 % 0 mm
20:24 18.6 °C 17.7 °C 1012.4 hPa Calm   1.9 km/h 95 % 0 mm
20:29 18.5 °C 17.7 °C 1012.1 hPa Calm     95 % 0 mm
20:34 18.4 °C 17.6 °C 1012.1 hPa SE 0.5 km/h 3.2 km/h 95 % 0 mm
20:36 18.4 °C 17.6 °C 1012.1 hPa SE 0.5 km/h 3.2 km/h 95 % 0 mm
20:41 18.3 °C 17.5 °C 1012.1 hPa Calm   1.9 km/h 95 % 0 mm
20:46 18.3 °C 17.4 °C 1011.7 hPa Calm   3.7 km/h 95 % 0 mm
20:51 18.3 °C 17.4 °C 1011.7 hPa Calm   3.7 km/h 95 % 0 mm
20:56 18.2 °C 17.4 °C 1011.7 hPa Calm   1.9 km/h 95 % 0 mm
21:01 18.2 °C 17.4 °C 1011.7 hPa Calm     95 % 0 mm
21:06 18.2 °C 17.4 °C 1011.7 hPa Calm     95 % 0 mm
21:11 18.2 °C 17.3 °C 1011.7 hPa Calm     95 % 0 mm
21:16 18.2 °C 17.3 °C 1011.7 hPa Calm   1.9 km/h 95 % 0 mm
21:21 18.2 °C 17.3 °C 1011.7 hPa SE 0.2 km/h 1.6 km/h 95 % 0 mm
21:26 18.2 °C 17.3 °C 1011.7 hPa Calm     95 % 0 mm
21:31 18.1 °C 17.4 °C 1011.7 hPa Calm     96 % 0 mm
21:36 18.1 °C 17.4 °C 1011.7 hPa Calm   1.9 km/h 96 % 0 mm
21:41 18.2 °C 17.5 °C 1011.7 hPa Calm   1.9 km/h 96 % 0 mm
21:46 18.2 °C 17.5 °C 1011.7 hPa Calm     96 % 0 mm
21:52 18.2 °C 17.5 °C 1011.7 hPa Calm     96 % 0 mm
21:57 18.2 °C 17.5 °C 1011.7 hPa Calm     96 % 0 mm
22:02 18.2 °C 17.6 °C 1011.7 hPa Calm     96 % 0 mm
22:07 18.3 °C 17.6 °C 1011.4 hPa Calm     96 % 0 mm
22:12 18.3 °C 17.6 °C 1011.4 hPa Calm   1.9 km/h 96 % 0 mm
22:17 18.3 °C 17.7 °C 1011.4 hPa Calm     96 % 0 mm
22:22 18.4 °C 17.7 °C 1011.4 hPa Calm     96 % 0 mm
22:27 18.4 °C 17.9 °C 1011.4 hPa Calm   1.9 km/h 97 % 0 mm
22:32 18.4 °C 17.9 °C 1011.4 hPa SE 0.8 km/h 1.9 km/h 97 % 0 mm
22:37 18.5 °C 18 °C 1011.4 hPa Calm   1.9 km/h 97 % 0 mm
22:42 18.6 °C 18.1 °C 1011.4 hPa NE 1.9 km/h 1.9 km/h 97 % 0 mm
22:47 18.6 °C 18.1 °C 1011.7 hPa NE 0.2 km/h 1.6 km/h 97 % 0 mm
22:52 18.6 °C 18.1 °C 1011.7 hPa NE 1.3 km/h 1.9 km/h 97 % 0 mm
22:57 18.6 °C 18.1 °C 1011.4 hPa NE 0.3 km/h 3.7 km/h 97 % 0 mm
23:03 18.7 °C 18.2 °C 1011.4 hPa Calm   1.9 km/h 97 % 0 mm
23:08 18.7 °C 18.2 °C 1011.4 hPa Calm     97 % 0 mm
23:14 18.7 °C 18.2 °C 1011.4 hPa Calm     97 % 0 mm
23:19 18.7 °C 18.2 °C 1011.4 hPa ENE 0.2 km/h 3.7 km/h 97 % 0 mm
23:22 18.7 °C 18.2 °C 1011.4 hPa ENE 0.8 km/h 3.7 km/h 97 % 0 mm
23:24 18.7 °C 18.2 °C 1011.1 hPa Calm   1.9 km/h 97 % 0 mm
23:27 18.7 °C 18.2 °C 1011.4 hPa Calm   1.9 km/h 97 % 0 mm
23:28 18.7 °C 18.2 °C 1011.4 hPa Calm     97 % 0 mm
23:32 18.7 °C 18.2 °C 1011.1 hPa Calm     97 % 0 mm
23:38 18.7 °C 18.2 °C 1011.1 hPa Calm   1.9 km/h 97 % 0 mm
23:43 18.7 °C 18.2 °C 1011.1 hPa Calm     97 % 0 mm
23:48 18.7 °C 18.2 °C 1011.1 hPa Calm     97 % 0 mm
23:53 18.8 °C 18.3 °C 1011.1 hPa Calm     97 % 0 mm
23:58 18.8 °C 18.3 °C 1010.7 hPa Calm     97 % 0 mm
Crab Meadow Weather
Compliments of Weather Underground - 3 mb

Script developed by  Jim McMurry - jmcmurry@mwt.net Adapted for the template by  Wim van der Kuil - Leuven-Template.eu

Extremes: Alaska and Hawaii have the same heat record. In Pahala, Hawaii the temperature on April 27, 1931 was 100 degrees F. Alaska's state heat record is also 100 degrees F. on June 27, 1915 at Fort Yukon.